sensor_id;sensor_type;location;lat;lon;timestamp;pressure;altitude;pressure_sealevel;temperature;humidity
36386;BME280;24125;47.482;8.770;2023-01-09T00:01:14;94820.19;;;10.27;88.62
36386;BME280;24125;47.482;8.770;2023-01-09T00:03:47;94824.81;;;10.30;87.94
36386;BME280;24125;47.482;8.770;2023-01-09T00:06:21;94808.53;;;10.35;87.86
36386;BME280;24125;47.482;8.770;2023-01-09T00:08:55;94792.56;;;10.38;87.42
36386;BME280;24125;47.482;8.770;2023-01-09T00:11:28;94788.06;;;10.42;86.64
36386;BME280;24125;47.482;8.770;2023-01-09T00:14:02;94784.69;;;10.45;86.55
36386;BME280;24125;47.482;8.770;2023-01-09T00:16:38;94785.47;;;10.46;86.40
36386;BME280;24125;47.482;8.770;2023-01-09T00:19:11;94791.19;;;10.48;86.30
36386;BME280;24125;47.482;8.770;2023-01-09T00:21:44;94795.81;;;10.51;85.90
36386;BME280;24125;47.482;8.770;2023-01-09T00:24:18;94785.16;;;10.51;85.49
36386;BME280;24125;47.482;8.770;2023-01-09T00:26:51;94790.13;;;10.52;85.57
36386;BME280;24125;47.482;8.770;2023-01-09T00:29:24;94791.69;;;10.53;85.28
36386;BME280;24125;47.482;8.770;2023-01-09T00:31:57;94788.25;;;10.53;85.03
36386;BME280;24125;47.482;8.770;2023-01-09T00:34:30;94789.78;;;10.54;84.78
36386;BME280;24125;47.482;8.770;2023-01-09T00:37:04;94797.00;;;10.53;84.71
36386;BME280;24125;47.482;8.770;2023-01-09T00:39:43;94797.78;;;10.54;84.69
36386;BME280;24125;47.482;8.770;2023-01-09T00:42:20;94800.84;;;10.56;84.85
36386;BME280;24125;47.482;8.770;2023-01-09T00:44:56;94794.38;;;10.57;84.61
36386;BME280;24125;47.482;8.770;2023-01-09T00:47:32;94800.06;;;10.55;84.68
36386;BME280;24125;47.482;8.770;2023-01-09T00:50:09;94795.50;;;10.56;84.53
36386;BME280;24125;47.482;8.770;2023-01-09T00:52:44;94795.50;;;10.56;84.44
36386;BME280;24125;47.482;8.770;2023-01-09T00:55:19;94807.72;;;10.57;84.68
36386;BME280;24125;47.482;8.770;2023-01-09T00:57:52;94800.06;;;10.55;84.76
36386;BME280;24125;47.482;8.770;2023-01-09T01:00:25;94803.50;;;10.56;84.29
36386;BME280;24125;47.482;8.770;2023-01-09T01:02:58;94790.94;;;10.56;84.30
36386;BME280;24125;47.482;8.770;2023-01-09T01:05:31;94774.56;;;10.58;84.89
36386;BME280;24125;47.482;8.770;2023-01-09T01:08:21;94791.72;;;10.57;84.64
36386;BME280;24125;47.482;8.770;2023-01-09T01:10:56;94784.47;;;10.57;84.28
36386;BME280;24125;47.482;8.770;2023-01-09T01:13:29;94782.59;;;10.58;84.57
36386;BME280;24125;47.482;8.770;2023-01-09T01:16:03;94799.38;;;10.58;84.68
36386;BME280;24125;47.482;8.770;2023-01-09T01:18:37;94808.84;;;10.56;84.15
36386;BME280;24125;47.482;8.770;2023-01-09T01:21:11;94792.50;;;10.57;84.11
36386;BME280;24125;47.482;8.770;2023-01-09T01:23:44;94795.16;;;10.57;84.34
36386;BME280;24125;47.482;8.770;2023-01-09T01:26:19;94807.38;;;10.58;84.19
36386;BME280;24125;47.482;8.770;2023-01-09T01:28:51;94816.16;;;10.59;84.37
36386;BME280;24125;47.482;8.770;2023-01-09T01:31:24;94805.06;;;10.57;84.15
36386;BME280;24125;47.482;8.770;2023-01-09T01:33:57;94797.06;;;10.57;84.07
36386;BME280;24125;47.482;8.770;2023-01-09T01:36:30;94798.94;;;10.56;83.96
36386;BME280;24125;47.482;8.770;2023-01-09T01:39:03;94797.41;;;10.55;84.30
36386;BME280;24125;47.482;8.770;2023-01-09T01:41:37;94800.50;;;10.57;83.80
36386;BME280;24125;47.482;8.770;2023-01-09T01:47:17;94805.03;;;10.53;83.83
36386;BME280;24125;47.482;8.770;2023-01-09T01:49:51;94808.81;;;10.52;83.63
36386;BME280;24125;47.482;8.770;2023-01-09T01:52:25;94815.28;;;10.51;84.29
36386;BME280;24125;47.482;8.770;2023-01-09T01:54:59;94828.25;;;10.53;83.90
36386;BME280;24125;47.482;8.770;2023-01-09T01:57:34;94830.94;;;10.53;84.16
36386;BME280;24125;47.482;8.770;2023-01-09T02:00:11;94836.28;;;10.53;83.78
36386;BME280;24125;47.482;8.770;2023-01-09T02:02:44;94840.47;;;10.54;83.72
36386;BME280;24125;47.482;8.770;2023-01-09T02:05:17;94841.59;;;10.53;83.79
36386;BME280;24125;47.482;8.770;2023-01-09T02:07:51;94843.50;;;10.52;83.75
36386;BME280;24125;47.482;8.770;2023-01-09T02:10:24;94851.16;;;10.54;83.30
36386;BME280;24125;47.482;8.770;2023-01-09T02:12:58;94849.63;;;10.53;82.93
36386;BME280;24125;47.482;8.770;2023-01-09T02:15:50;94843.16;;;10.54;83.48
36386;BME280;24125;47.482;8.770;2023-01-09T02:18:45;94832.81;;;10.52;83.35
36386;BME280;24125;47.482;8.770;2023-01-09T02:21:28;94838.09;;;10.49;82.51
36386;BME280;24125;47.482;8.770;2023-01-09T02:24:27;94841.88;;;10.48;82.48
36386;BME280;24125;47.482;8.770;2023-01-09T02:30:38;94863.06;;;10.37;82.66
36386;BME280;24125;47.482;8.770;2023-01-09T02:33:32;94881.31;;;10.35;82.31
36386;BME280;24125;47.482;8.770;2023-01-09T02:36:21;94912.50;;;10.31;82.59
36386;BME280;24125;47.482;8.770;2023-01-09T02:39:09;94910.53;;;10.28;82.02
36386;BME280;24125;47.482;8.770;2023-01-09T02:41:52;94901.34;;;10.26;82.45
36386;BME280;24125;47.482;8.770;2023-01-09T02:44:29;94898.19;;;10.20;82.47
36386;BME280;24125;47.482;8.770;2023-01-09T02:47:06;94900.50;;;10.21;81.93
36386;BME280;24125;47.482;8.770;2023-01-09T02:49:40;94883.66;;;10.17;82.08
36386;BME280;24125;47.482;8.770;2023-01-09T02:52:27;94882.53;;;10.18;82.26
36386;BME280;24125;47.482;8.770;2023-01-09T02:55:10;94902.34;;;10.17;82.24
36386;BME280;24125;47.482;8.770;2023-01-09T02:57:56;94914.44;;;10.15;82.29
36386;BME280;24125;47.482;8.770;2023-01-09T03:00:43;94911.00;;;10.14;82.36
36386;BME280;24125;47.482;8.770;2023-01-09T03:03:24;94914.41;;;10.11;82.71
36386;BME280;24125;47.482;8.770;2023-01-09T03:06:07;94926.53;;;10.09;82.99
36386;BME280;24125;47.482;8.770;2023-01-09T03:08:46;94937.88;;;10.06;82.85
36386;BME280;24125;47.482;8.770;2023-01-09T03:11:21;94956.91;;;10.04;82.59
36386;BME280;24125;47.482;8.770;2023-01-09T03:13:56;94974.78;;;10.04;82.53
36386;BME280;24125;47.482;8.770;2023-01-09T03:16:35;94988.50;;;10.02;82.18
36386;BME280;24125;47.482;8.770;2023-01-09T03:19:11;95014.72;;;10.00;82.14
36386;BME280;24125;47.482;8.770;2023-01-09T03:21:46;95012.31;;;9.95;81.68
36386;BME280;24125;47.482;8.770;2023-01-09T03:24:19;95015.28;;;9.90;81.77
36386;BME280;24125;47.482;8.770;2023-01-09T03:26:52;95042.97;;;9.86;80.86
36386;BME280;24125;47.482;8.770;2023-01-09T03:29:26;95058.09;;;9.81;81.33
36386;BME280;24125;47.482;8.770;2023-01-09T03:32:00;95067.56;;;9.79;80.39
36386;BME280;24125;47.482;8.770;2023-01-09T03:34:34;95068.19;;;9.72;80.62
36386;BME280;24125;47.482;8.770;2023-01-09T03:37:07;95063.81;;;9.64;80.61
36386;BME280;24125;47.482;8.770;2023-01-09T03:39:40;95064.09;;;9.59;80.69
36386;BME280;24125;47.482;8.770;2023-01-09T03:42:14;95068.09;;;9.53;80.91
36386;BME280;24125;47.482;8.770;2023-01-09T03:44:47;95073.69;;;9.48;80.72
36386;BME280;24125;47.482;8.770;2023-01-09T03:47:21;95077.31;;;9.40;81.27
36386;BME280;24125;47.482;8.770;2023-01-09T03:49:55;95083.31;;;9.37;81.37
36386;BME280;24125;47.482;8.770;2023-01-09T03:52:28;95098.88;;;9.35;81.68
36386;BME280;24125;47.482;8.770;2023-01-09T03:55:02;95108.34;;;9.32;81.90
36386;BME280;24125;47.482;8.770;2023-01-09T03:57:35;95100.34;;;9.32;81.67
36386;BME280;24125;47.482;8.770;2023-01-09T04:00:09;95093.81;;;9.30;81.59
36386;BME280;24125;47.482;8.770;2023-01-09T04:02:42;95101.78;;;9.30;81.68
36386;BME280;24125;47.482;8.770;2023-01-09T04:05:16;95111.34;;;9.31;81.69
36386;BME280;24125;47.482;8.770;2023-01-09T04:07:49;95129.88;;;9.27;81.59
36386;BME280;24125;47.482;8.770;2023-01-09T04:10:22;95138.56;;;9.24;81.35
36386;BME280;24125;47.482;8.770;2023-01-09T04:12:55;95123.25;;;9.21;81.52
36386;BME280;24125;47.482;8.770;2023-01-09T04:15:28;95140.28;;;9.17;81.67
36386;BME280;24125;47.482;8.770;2023-01-09T04:18:02;95156.59;;;9.15;82.18
36386;BME280;24125;47.482;8.770;2023-01-09T04:20:36;95150.81;;;9.13;81.80
36386;BME280;24125;47.482;8.770;2023-01-09T04:23:09;95161.03;;;9.11;81.77
36386;BME280;24125;47.482;8.770;2023-01-09T04:25:42;95178.81;;;9.07;82.02
36386;BME280;24125;47.482;8.770;2023-01-09T04:28:16;95192.13;;;9.07;82.03
36386;BME280;24125;47.482;8.770;2023-01-09T04:30:49;95182.13;;;9.04;81.99
36386;BME280;24125;47.482;8.770;2023-01-09T04:33:22;95183.59;;;9.01;81.84
36386;BME280;24125;47.482;8.770;2023-01-09T04:35:56;95193.44;;;9.01;81.36
36386;BME280;24125;47.482;8.770;2023-01-09T04:38:29;95204.81;;;8.98;81.38
36386;BME280;24125;47.482;8.770;2023-01-09T04:41:02;95195.94;;;8.94;81.00
36386;BME280;24125;47.482;8.770;2023-01-09T04:43:35;95201.91;;;8.91;81.13
36386;BME280;24125;47.482;8.770;2023-01-09T04:46:08;95195.28;;;8.85;80.98
36386;BME280;24125;47.482;8.770;2023-01-09T04:48:41;95212.69;;;8.82;81.16
36386;BME280;24125;47.482;8.770;2023-01-09T04:51:15;95211.06;;;8.78;80.57
36386;BME280;24125;47.482;8.770;2023-01-09T04:53:48;95209.41;;;8.73;80.80
36386;BME280;24125;47.482;8.770;2023-01-09T04:56:21;95222.59;;;8.69;80.66
36386;BME280;24125;47.482;8.770;2023-01-09T04:58:54;95233.50;;;8.64;80.50
36386;BME280;24125;47.482;8.770;2023-01-09T05:01:27;95235.59;;;8.59;80.54
36386;BME280;24125;47.482;8.770;2023-01-09T05:04:00;95241.91;;;8.54;80.68
36386;BME280;24125;47.482;8.770;2023-01-09T05:06:35;95259.66;;;8.50;80.58
36386;BME280;24125;47.482;8.770;2023-01-09T05:09:08;95251.91;;;8.45;80.78
36386;BME280;24125;47.482;8.770;2023-01-09T05:11:41;95249.44;;;8.40;80.60
36386;BME280;24125;47.482;8.770;2023-01-09T05:14:14;95258.44;;;8.36;80.72
36386;BME280;24125;47.482;8.770;2023-01-09T05:16:47;95254.88;;;8.31;81.37
36386;BME280;24125;47.482;8.770;2023-01-09T05:19:21;95260.84;;;8.28;81.50
36386;BME280;24125;47.482;8.770;2023-01-09T05:21:56;95265.72;;;8.26;80.99
36386;BME280;24125;47.482;8.770;2023-01-09T05:24:29;95269.81;;;8.24;81.62
36386;BME280;24125;47.482;8.770;2023-01-09T05:27:02;95272.00;;;8.22;81.86
36386;BME280;24125;47.482;8.770;2023-01-09T05:29:35;95268.03;;;8.16;81.23
36386;BME280;24125;47.482;8.770;2023-01-09T05:32:08;95278.34;;;8.17;81.12
36386;BME280;24125;47.482;8.770;2023-01-09T05:34:41;95277.56;;;8.17;80.63
36386;BME280;24125;47.482;8.770;2023-01-09T05:37:15;95278.22;;;8.14;80.03
36386;BME280;24125;47.482;8.770;2023-01-09T05:39:48;95270.00;;;8.07;79.54
36386;BME280;24125;47.482;8.770;2023-01-09T05:42:22;95275.88;;;8.00;79.01
36386;BME280;24125;47.482;8.770;2023-01-09T05:44:54;95272.66;;;7.94;78.62
36386;BME280;24125;47.482;8.770;2023-01-09T05:47:27;95279.19;;;7.85;78.28
36386;BME280;24125;47.482;8.770;2023-01-09T05:50:00;95265.97;;;7.76;79.21
36386;BME280;24125;47.482;8.770;2023-01-09T05:52:35;95270.38;;;7.72;78.94
36386;BME280;24125;47.482;8.770;2023-01-09T05:55:08;95280.31;;;7.63;78.56
36386;BME280;24125;47.482;8.770;2023-01-09T05:57:43;95293.69;;;7.54;79.48
36386;BME280;24125;47.482;8.770;2023-01-09T06:00:17;95294.69;;;7.50;79.66
36386;BME280;24125;47.482;8.770;2023-01-09T06:02:50;95283.47;;;7.44;80.75
36386;BME280;24125;47.482;8.770;2023-01-09T06:05:23;95289.13;;;7.43;81.02
36386;BME280;24125;47.482;8.770;2023-01-09T06:07:58;95278.94;;;7.45;81.51
36386;BME280;24125;47.482;8.770;2023-01-09T06:10:31;95276.28;;;7.45;81.83
36386;BME280;24125;47.482;8.770;2023-01-09T06:13:04;95292.34;;;7.48;82.46
36386;BME280;24125;47.482;8.770;2023-01-09T06:15:37;95280.63;;;7.49;82.31
36386;BME280;24125;47.482;8.770;2023-01-09T06:18:10;95277.28;;;7.52;81.61
36386;BME280;24125;47.482;8.770;2023-01-09T06:20:43;95274.31;;;7.54;81.11
36386;BME280;24125;47.482;8.770;2023-01-09T06:23:18;95281.97;;;7.55;80.35
36386;BME280;24125;47.482;8.770;2023-01-09T06:25:52;95292.13;;;7.53;79.82
36386;BME280;24125;47.482;8.770;2023-01-09T06:28:25;95300.78;;;7.50;79.55
36386;BME280;24125;47.482;8.770;2023-01-09T06:30:58;95301.72;;;7.46;79.70
36386;BME280;24125;47.482;8.770;2023-01-09T06:33:31;95303.50;;;7.42;79.24
36386;BME280;24125;47.482;8.770;2023-01-09T06:36:05;95312.09;;;7.39;78.94
36386;BME280;24125;47.482;8.770;2023-01-09T06:38:40;95309.66;;;7.34;78.99
36386;BME280;24125;47.482;8.770;2023-01-09T06:41:13;95307.19;;;7.29;78.92
36386;BME280;24125;47.482;8.770;2023-01-09T06:43:46;95297.88;;;7.23;78.42
36386;BME280;24125;47.482;8.770;2023-01-09T06:46:19;95294.19;;;7.15;78.51
36386;BME280;24125;47.482;8.770;2023-01-09T06:48:52;95292.84;;;7.09;78.70
36386;BME280;24125;47.482;8.770;2023-01-09T06:51:25;95286.16;;;7.03;79.00
36386;BME280;24125;47.482;8.770;2023-01-09T06:53:59;95286.66;;;6.96;78.83
36386;BME280;24125;47.482;8.770;2023-01-09T06:56:32;95281.09;;;6.89;78.49
36386;BME280;24125;47.482;8.770;2023-01-09T06:59:05;95285.06;;;6.83;79.04
36386;BME280;24125;47.482;8.770;2023-01-09T07:01:38;95278.06;;;6.78;78.55
36386;BME280;24125;47.482;8.770;2023-01-09T07:04:11;95268.75;;;6.72;78.99
36386;BME280;24125;47.482;8.770;2023-01-09T07:06:46;95261.72;;;6.68;78.49
36386;BME280;24125;47.482;8.770;2023-01-09T07:09:21;95265.34;;;6.63;79.10
36386;BME280;24125;47.482;8.770;2023-01-09T07:11:54;95264.75;;;6.58;78.59
36386;BME280;24125;47.482;8.770;2023-01-09T07:14:27;95261.97;;;6.54;78.68
36386;BME280;24125;47.482;8.770;2023-01-09T07:17:00;95274.00;;;6.52;79.19
36386;BME280;24125;47.482;8.770;2023-01-09T07:19:33;95271.66;;;6.50;79.37
36386;BME280;24125;47.482;8.770;2023-01-09T07:22:07;95268.22;;;6.50;80.05
36386;BME280;24125;47.482;8.770;2023-01-09T07:24:41;95282.28;;;6.50;80.12
36386;BME280;24125;47.482;8.770;2023-01-09T07:27:15;95291.31;;;6.49;79.77
36386;BME280;24125;47.482;8.770;2023-01-09T07:29:48;95285.25;;;6.49;79.91
36386;BME280;24125;47.482;8.770;2023-01-09T07:32:21;95284.47;;;6.48;79.97
36386;BME280;24125;47.482;8.770;2023-01-09T07:34:54;95280.72;;;6.49;79.69
36386;BME280;24125;47.482;8.770;2023-01-09T07:37:27;95282.63;;;6.49;80.51
36386;BME280;24125;47.482;8.770;2023-01-09T07:40:02;95284.59;;;6.52;80.02
36386;BME280;24125;47.482;8.770;2023-01-09T07:42:36;95284.59;;;6.52;80.39
36386;BME280;24125;47.482;8.770;2023-01-09T07:45:09;95282.88;;;6.56;81.25
36386;BME280;24125;47.482;8.770;2023-01-09T07:47:42;95275.81;;;6.60;81.63
36386;BME280;24125;47.482;8.770;2023-01-09T07:50:16;95281.38;;;6.67;82.38
36386;BME280;24125;47.482;8.770;2023-01-09T07:52:49;95284.78;;;6.76;82.73
36386;BME280;24125;47.482;8.770;2023-01-09T07:55:23;95280.97;;;6.86;82.76
36386;BME280;24125;47.482;8.770;2023-01-09T07:57:56;95279.03;;;6.95;82.52
36386;BME280;24125;47.482;8.770;2023-01-09T08:00:29;95276.00;;;7.05;82.47
36386;BME280;24125;47.482;8.770;2023-01-09T08:03:03;95281.69;;;7.15;82.18
36386;BME280;24125;47.482;8.770;2023-01-09T08:05:36;95281.63;;;7.24;82.10
36386;BME280;24125;47.482;8.770;2023-01-09T08:08:09;95283.88;;;7.34;82.12
36386;BME280;24125;47.482;8.770;2023-01-09T08:10:44;95277.38;;;7.44;82.59
36386;BME280;24125;47.482;8.770;2023-01-09T08:13:17;95287.16;;;7.52;81.69
36386;BME280;24125;47.482;8.770;2023-01-09T08:15:50;95293.16;;;7.61;81.94
36386;BME280;24125;47.482;8.770;2023-01-09T08:18:23;95288.09;;;7.68;81.94
36386;BME280;24125;47.482;8.770;2023-01-09T08:20:56;95292.22;;;7.78;81.35
36386;BME280;24125;47.482;8.770;2023-01-09T08:23:29;95299.22;;;7.82;81.22
36386;BME280;24125;47.482;8.770;2023-01-09T08:26:03;95288.34;;;7.87;81.30
36386;BME280;24125;47.482;8.770;2023-01-09T08:28:37;95303.78;;;7.94;81.25
36386;BME280;24125;47.482;8.770;2023-01-09T08:31:10;95309.34;;;8.01;81.51
36386;BME280;24125;47.482;8.770;2023-01-09T08:33:43;95305.66;;;8.06;81.01
36386;BME280;24125;47.482;8.770;2023-01-09T08:36:16;95312.34;;;8.12;81.26
36386;BME280;24125;47.482;8.770;2023-01-09T08:38:49;95313.69;;;8.18;81.45
36386;BME280;24125;47.482;8.770;2023-01-09T08:41:24;95305.47;;;8.23;80.95
36386;BME280;24125;47.482;8.770;2023-01-09T08:44:14;95300.28;;;8.26;81.18
36386;BME280;24125;47.482;8.770;2023-01-09T08:47:04;95304.75;;;8.35;80.50
36386;BME280;24125;47.482;8.770;2023-01-09T08:49:38;95300.34;;;8.39;80.32
36386;BME280;24125;47.482;8.770;2023-01-09T08:52:10;95292.00;;;8.40;79.52
36386;BME280;24125;47.482;8.770;2023-01-09T08:54:44;95297.78;;;8.42;79.74
36386;BME280;24125;47.482;8.770;2023-01-09T08:57:18;95293.69;;;8.45;79.11
36386;BME280;24125;47.482;8.770;2023-01-09T08:59:51;95281.16;;;8.45;79.64
36386;BME280;24125;47.482;8.770;2023-01-09T09:02:24;95302.53;;;8.49;79.36
36386;BME280;24125;47.482;8.770;2023-01-09T09:04:57;95302.66;;;8.52;79.99
36386;BME280;24125;47.482;8.770;2023-01-09T09:07:30;95294.34;;;8.54;79.50
36386;BME280;24125;47.482;8.770;2023-01-09T09:10:03;95295.56;;;8.56;79.55
36386;BME280;24125;47.482;8.770;2023-01-09T09:12:38;95304.09;;;8.62;79.65
36386;BME280;24125;47.482;8.770;2023-01-09T09:15:11;95303.00;;;8.63;79.81
36386;BME280;24125;47.482;8.770;2023-01-09T09:17:44;95292.91;;;8.68;79.83
36386;BME280;24125;47.482;8.770;2023-01-09T09:20:17;95311.19;;;8.70;79.74
36386;BME280;24125;47.482;8.770;2023-01-09T09:22:50;95307.19;;;8.76;79.70
36386;BME280;24125;47.482;8.770;2023-01-09T09:25:23;95309.19;;;8.79;79.74
36386;BME280;24125;47.482;8.770;2023-01-09T09:27:59;95309.41;;;8.86;79.50
36386;BME280;24125;47.482;8.770;2023-01-09T09:30:32;95314.84;;;8.90;79.35
36386;BME280;24125;47.482;8.770;2023-01-09T09:33:05;95313.06;;;8.94;79.43
36386;BME280;24125;47.482;8.770;2023-01-09T09:35:38;95301.41;;;8.98;79.32
36386;BME280;24125;47.482;8.770;2023-01-09T09:38:11;95297.72;;;9.03;78.68
36386;BME280;24125;47.482;8.770;2023-01-09T09:41:06;95301.38;;;9.11;78.79
36386;BME280;24125;47.482;8.770;2023-01-09T09:44:16;95298.03;;;9.14;79.25
36386;BME280;24125;47.482;8.770;2023-01-09T09:47:29;95298.50;;;9.16;78.52
36386;BME280;24125;47.482;8.770;2023-01-09T09:50:11;95304.59;;;9.16;78.40
36386;BME280;24125;47.482;8.770;2023-01-09T09:52:54;95304.59;;;9.16;78.02
36386;BME280;24125;47.482;8.770;2023-01-09T09:55:30;95293.94;;;9.16;77.63
36386;BME280;24125;47.482;8.770;2023-01-09T09:58:06;95298.13;;;9.17;77.41
36386;BME280;24125;47.482;8.770;2023-01-09T10:00:43;95297.72;;;9.15;77.88
36386;BME280;24125;47.482;8.770;2023-01-09T10:03:24;95301.16;;;9.16;77.86
36386;BME280;24125;47.482;8.770;2023-01-09T10:06:08;95302.25;;;9.15;77.49
36386;BME280;24125;47.482;8.770;2023-01-09T10:08:50;95289.03;;;9.18;78.49
36386;BME280;24125;47.482;8.770;2023-01-09T10:11:31;95280.38;;;9.21;78.95
36386;BME280;24125;47.482;8.770;2023-01-09T10:14:05;95277.13;;;9.28;79.63
36386;BME280;24125;47.482;8.770;2023-01-09T10:17:16;95281.66;;;9.39;79.09
36386;BME280;24125;47.482;8.770;2023-01-09T10:20:33;95275.06;;;9.49;79.10
36386;BME280;24125;47.482;8.770;2023-01-09T10:26:14;95279.31;;;9.66;80.08
36386;BME280;24125;47.482;8.770;2023-01-09T10:32:23;95272.09;;;9.94;78.96
36386;BME280;24125;47.482;8.770;2023-01-09T10:35:17;95269.25;;;10.03;78.05
36386;BME280;24125;47.482;8.770;2023-01-09T10:37:54;95280.50;;;10.12;78.66
36386;BME280;24125;47.482;8.770;2023-01-09T10:40:33;95270.06;;;10.19;79.05
36386;BME280;24125;47.482;8.770;2023-01-09T10:43:11;95273.75;;;10.30;79.41
36386;BME280;24125;47.482;8.770;2023-01-09T10:45:49;95273.22;;;10.40;80.08
36386;BME280;24125;47.482;8.770;2023-01-09T10:48:30;95275.47;;;10.54;79.58
36386;BME280;24125;47.482;8.770;2023-01-09T10:51:14;95265.44;;;10.67;79.89
36386;BME280;24125;47.482;8.770;2023-01-09T10:53:50;95271.47;;;10.79;79.70
36386;BME280;24125;47.482;8.770;2023-01-09T10:56:25;95266.34;;;10.90;79.12
36386;BME280;24125;47.482;8.770;2023-01-09T10:58:59;95260.13;;;11.02;78.37
36386;BME280;24125;47.482;8.770;2023-01-09T11:01:34;95270.25;;;11.12;79.47
36386;BME280;24125;47.482;8.770;2023-01-09T11:04:18;95261.69;;;11.22;78.79
36386;BME280;24125;47.482;8.770;2023-01-09T11:06:57;95268.72;;;11.30;78.04
36386;BME280;24125;47.482;8.770;2023-01-09T11:09:55;95265.84;;;11.39;77.86
36386;BME280;24125;47.482;8.770;2023-01-09T11:12:29;95277.00;;;11.44;78.36
36386;BME280;24125;47.482;8.770;2023-01-09T11:15:22;95275.59;;;11.50;78.88
36386;BME280;24125;47.482;8.770;2023-01-09T11:18:21;95270.34;;;11.54;77.46
36386;BME280;24125;47.482;8.770;2023-01-09T11:21:11;95276.13;;;11.56;76.77
36386;BME280;24125;47.482;8.770;2023-01-09T11:23:44;95267.31;;;11.55;77.33
36386;BME280;24125;47.482;8.770;2023-01-09T11:26:22;95269.28;;;11.58;76.83
36386;BME280;24125;47.482;8.770;2023-01-09T11:29:10;95255.94;;;11.58;76.34
36386;BME280;24125;47.482;8.770;2023-01-09T11:31:51;95254.38;;;11.57;76.04
36386;BME280;24125;47.482;8.770;2023-01-09T11:34:27;95255.94;;;11.58;76.31
36386;BME280;24125;47.482;8.770;2023-01-09T11:37:05;95259.00;;;11.60;76.44
36386;BME280;24125;47.482;8.770;2023-01-09T11:39:39;95259.00;;;11.60;76.39
36386;BME280;24125;47.482;8.770;2023-01-09T11:42:20;95255.19;;;11.61;76.43
36386;BME280;24125;47.482;8.770;2023-01-09T11:45:15;95264.78;;;11.62;76.34
36386;BME280;24125;47.482;8.770;2023-01-09T11:47:48;95263.66;;;11.63;75.58
36386;BME280;24125;47.482;8.770;2023-01-09T11:50:23;95269.41;;;11.65;76.63
36386;BME280;24125;47.482;8.770;2023-01-09T11:53:15;95267.19;;;11.67;76.77
36386;BME280;24125;47.482;8.770;2023-01-09T11:55:57;95269.84;;;11.67;75.82
36386;BME280;24125;47.482;8.770;2023-01-09T11:58:33;95279.00;;;11.66;76.46
36386;BME280;24125;47.482;8.770;2023-01-09T12:01:16;95281.28;;;11.68;76.00
36386;BME280;24125;47.482;8.770;2023-01-09T12:04:14;95281.28;;;11.68;75.78
36386;BME280;24125;47.482;8.770;2023-01-09T12:07:17;95275.19;;;11.67;76.39
36386;BME280;24125;47.482;8.770;2023-01-09T12:10:06;95296.59;;;11.67;76.20
36386;BME280;24125;47.482;8.770;2023-01-09T12:12:51;95292.38;;;11.66;76.01
36386;BME280;24125;47.482;8.770;2023-01-09T12:15:31;95296.50;;;11.64;75.28
36386;BME280;24125;47.482;8.770;2023-01-09T12:18:18;95303.75;;;11.63;75.68
36386;BME280;24125;47.482;8.770;2023-01-09T12:21:06;95304.44;;;11.60;75.72
36386;BME280;24125;47.482;8.770;2023-01-09T12:24:16;95302.41;;;11.54;74.52
36386;BME280;24125;47.482;8.770;2023-01-09T12:27:10;95299.25;;;11.48;75.15
36386;BME280;24125;47.482;8.770;2023-01-09T12:29:53;95296.78;;;11.40;74.27
36386;BME280;24125;47.482;8.770;2023-01-09T12:32:44;95306.56;;;11.32;75.09
36386;BME280;24125;47.482;8.770;2023-01-09T12:35:30;95311.25;;;11.19;75.05
36386;BME280;24125;47.482;8.770;2023-01-09T12:38:25;95308.34;;;11.09;75.42
36386;BME280;24125;47.482;8.770;2023-01-09T12:44:50;95312.94;;;10.92;75.86
36386;BME280;24125;47.482;8.770;2023-01-09T12:47:45;95310.63;;;10.91;76.55
36386;BME280;24125;47.482;8.770;2023-01-09T12:53:28;95306.06;;;10.91;76.97
36386;BME280;24125;47.482;8.770;2023-01-09T12:56:06;95320.63;;;10.94;76.62
36386;BME280;24125;47.482;8.770;2023-01-09T12:58:43;95310.72;;;10.94;76.16
36386;BME280;24125;47.482;8.770;2023-01-09T13:01:23;95306.19;;;10.98;76.17
36386;BME280;24125;47.482;8.770;2023-01-09T13:04:08;95300.88;;;10.98;75.83
36386;BME280;24125;47.482;8.770;2023-01-09T13:06:50;95305.53;;;11.02;76.07
36386;BME280;24125;47.482;8.770;2023-01-09T13:09:26;95294.50;;;11.03;75.90
36386;BME280;24125;47.482;8.770;2023-01-09T13:12:07;95291.91;;;11.07;76.63
36386;BME280;24125;47.482;8.770;2023-01-09T13:14:49;95296.63;;;11.13;77.28
36386;BME280;24125;47.482;8.770;2023-01-09T13:17:27;95303.22;;;11.19;77.12
36386;BME280;24125;47.482;8.770;2023-01-09T13:20:03;95286.09;;;11.20;76.07
36386;BME280;24125;47.482;8.770;2023-01-09T13:22:36;95302.53;;;11.22;74.81
36386;BME280;24125;47.482;8.770;2023-01-09T13:25:40;95291.09;;;11.22;74.02
36386;BME280;24125;47.482;8.770;2023-01-09T13:28:18;95280.25;;;11.15;73.42
36386;BME280;24125;47.482;8.770;2023-01-09T13:31:08;95291.53;;;11.08;72.65
36386;BME280;24125;47.482;8.770;2023-01-09T13:33:49;95289.78;;;10.96;72.53
36386;BME280;24125;47.482;8.770;2023-01-09T13:36:25;95290.31;;;10.86;71.76
36386;BME280;24125;47.482;8.770;2023-01-09T13:38:59;95274.38;;;10.74;72.94
36386;BME280;24125;47.482;8.770;2023-01-09T13:41:45;95285.59;;;10.64;72.51
36386;BME280;24125;47.482;8.770;2023-01-09T13:44:36;95263.94;;;10.50;72.13
36386;BME280;24125;47.482;8.770;2023-01-09T13:47:16;95279.34;;;10.41;72.87
36386;BME280;24125;47.482;8.770;2023-01-09T13:50:19;95280.63;;;10.31;72.95
36386;BME280;24125;47.482;8.770;2023-01-09T13:52:52;95275.72;;;10.17;72.56
36386;BME280;24125;47.482;8.770;2023-01-09T13:55:30;95273.22;;;10.09;72.46
36386;BME280;24125;47.482;8.770;2023-01-09T13:58:17;95275.25;;;10.00;73.04
36386;BME280;24125;47.482;8.770;2023-01-09T14:00:55;95285.66;;;9.89;73.36
36386;BME280;24125;47.482;8.770;2023-01-09T14:03:32;95277.03;;;9.80;73.39
36386;BME280;24125;47.482;8.770;2023-01-09T14:06:15;95294.06;;;9.75;73.15
36386;BME280;24125;47.482;8.770;2023-01-09T14:09:08;95280.88;;;9.67;74.06
36386;BME280;24125;47.482;8.770;2023-01-09T14:11:43;95287.91;;;9.59;73.81
36386;BME280;24125;47.482;8.770;2023-01-09T14:14:24;95287.38;;;9.54;73.82
36386;BME280;24125;47.482;8.770;2023-01-09T14:16:59;95294.50;;;9.50;75.45
36386;BME280;24125;47.482;8.770;2023-01-09T14:19:36;95297.38;;;9.44;73.90